Data for 08/14/2006

Time Sea-Level Adjusted Pressure Absolute Pressure Temperature Relative Humidity Dew Point   
(mb) (inHg) (mb) (inHg) (C) (F) (%) (C) (F)
00:05 1021 30.15 850 25.1 16.6 61.9 29 -1.3 29.7
00:10 1021 30.15 850 25.1 16.8 62.2 29 -1.2 29.9
00:15 1021 30.15 850 25.1 16.9 62.3 29 -1.1 30
00:20 1021 30.15 850 25.1 16.9 62.4 30 -0.8 30.5
00:25 1021 30.15 850 25.1 16.8 62.3 30 -0.6 30.9
00:30 1021 30.15 850 25.1 16.9 62.5 31 -0.3 31.5
00:35 1021 30.15 850 25.1 16.9 62.4 31 -0.1 31.9
00:40 1021 30.15 850 25.1 16.8 62.3 32 0.1 32.2
00:45 1021 30.15 850 25.1 16.7 62.1 32 0.2 32.4
00:50 1021 30.15 850 25.1 16.7 62.1 33 0.4 32.7
00:55 1021 30.15 850 25.1 16.7 62.1 33 0.6 33
01:00 1021 30.15 850 25.1 16.6 61.9 34 0.7 33.2
01:05 1021 30.15 850 25.1 16.5 61.7 34 0.7 33.3
01:10 1021 30.15 850 25.1 16.4 61.5 35 0.8 33.5
01:15 1021 30.15 850 25.1 16.3 61.3 35 0.9 33.5
01:20 1021 30.15 850 25.1 16.3 61.3 35 1 33.7
01:25 1021 30.15 850 25.1 16.3 61.3 35 1 33.8
01:30 1021 30.15 850 25.1 16.2 61.1 36 1.1 33.9
01:35 1021 30.15 850 25.1 16 60.8 37 1.5 34.7
01:40 1021 30.15 850 25.1 15.8 60.5 38 1.6 35
01:45 1021 30.15 850 25.1 15.8 60.4 39 1.9 35.4
01:50 1021 30.15 850 25.1 15.6 60.1 40 2.1 35.7
01:55 1021 30.15 850 25.1 15.6 60.1 40 2.1 35.7
02:00 1021 30.15 850 25.1 15.5 60 41 2.4 36.3
02:05 1021 30.15 850 25.1 15.3 59.5 41 2.3 36.2
02:10 1021 30.15 850 25.1 15.2 59.4 42 2.4 36.3
02:15 1021 30.15 850 25.1 15.2 59.3 42 2.4 36.4
02:20 1021 30.15 850 25.1 15.1 59.2 43 2.6 36.7
02:25 1021 30.15 850 25.1 15.1 59.3 42 2.6 36.6
02:30 1021 30.15 850 25.1 15.3 59.5 42 2.6 36.7
02:35 1021 30.15 850 25.1 15.2 59.3 43 2.7 36.9
02:40 1021 30.15 850 25.1 15 59 42 2.4 36.4
02:45 1021 30.15 850 25.1 15 59.1 43 2.6 36.7
02:50 1021 30.15 850 25.1 15.2 59.3 42 2.6 36.6
02:55 1021 30.15 850 25.1 15.4 59.6 42 2.7 36.9
03:00 1021 30.15 850 25.1 15.4 59.7 43 3 37.4
03:05 1021 30.15 850 25.1 15.2 59.4 44 3.3 37.9
03:10 1021 30.15 850 25.1 15.1 59.1 46 3.5 38.3
03:15 1021 30.15 850 25.1 14.9 58.7 47 3.6 38.5
03:20 1021 30.15 850 25.1 14.9 58.8 47 3.7 38.6
03:25 1021 30.15 850 25.1 14.9 58.9 47 3.8 38.8
03:30 1021 30.15 850 25.1 14.8 58.7 47 3.9 38.9
03:35 1021 30.15 850 25.1 14.7 58.4 49 4 39.3
03:40 1021 30.15 850 25.1 14.4 58 50 4.1 39.4
03:45 1021 30.15 850 25.1 14.2 57.5 50 4.1 39.4
03:50 1021 30.15 850 25.1 13.9 57.1 51 4.1 39.4
03:55 1021 30.15 850 25.1 13.9 57 51 4.1 39.4
04:00 1021 30.15 850 25.1 13.7 56.6 47 2.6 36.6
04:05 1021 30.15 850 25.1 12.9 55.3 53 3.6 38.4
04:10 1021 30.15 850 25.1 12.8 55 50 2.7 36.9
04:15 1021 30.15 850 25.1 12.9 55.2 49 2.6 36.7
04:20 1021 30.15 850 25.1 12.8 55.1 50 2.7 36.8
04:25 1021 30.15 850 25.1 12.7 54.8 48 2.1 35.8
04:30 1021 30.15 850 25.1 12.7 54.9 48 2.2 35.9
04:35 1021 30.15 850 25.1 12.8 55.1 48 2.2 35.9
04:40 1021 30.15 850 25.1 12.8 55 49 2.4 36.2
04:45 1021 30.15 850 25.1 12.8 55 49 2.5 36.5
04:50 1021 30.15 850 25.1 12.6 54.8 50 2.6 36.7
04:55 1021 30.15 850 25.1 12.3 54.1 55 3.6 38.5
05:00 1021 30.15 850 25.1 12.2 53.9 48 1.7 35
05:05 1021 30.15 850 25.1 12.1 53.7 47 1.2 34.1
05:10 1021 30.15 851 25.13 12.2 53.9 47 1.2 34.2
05:15 1021 30.15 850 25.1 11.8 53.2 49 1.5 34.6
05:20 1021 30.15 850 25.1 11.6 52.9 49 1.3 34.4
05:25 1021 30.15 850 25.1 11.5 52.7 50 1.5 34.7
05:30 1021 30.15 850 25.1 11.6 52.8 49 1.3 34.3
05:35 1021 30.15 850 25.1 11.7 53.1 49 1.3 34.4
05:40 1021 30.15 850 25.1 11.5 52.6 49 1.3 34.3
05:45 1021 30.15 850 25.1 11.2 52.1 50 1.1 34
05:50 1021 30.15 850 25.1 11.3 52.3 48 0.6 33.1
05:55 1021 30.15 850 25.1 11.3 52.4 47 0.5 32.9
06:00 1021 30.15 850 25.1 11.4 52.5 48 0.9 33.7
06:05 1021 30.15 850 25.1 11.4 52.5 48 1 33.7
06:10 1021 30.15 850 25.1 11.5 52.7 47 0.7 33.2
06:15 1021 30.15 850 25.1 11.7 53.1 47 0.8 33.5
06:20 1021 30.15 850 25.1 11.9 53.4 47 1 33.9
06:25 1021 30.15 850 25.1 11.4 52.6 49 1.3 34.3
06:30 1021 30.15 850 25.1 10.7 51.3 52 1.3 34.3
06:35 1021 30.15 850 25.1 10.5 50.9 51 0.8 33.4
06:40 1021 30.15 850 25.1 10.5 50.9 50 0.5 33
06:45 1021 30.15 850 25.1 11.2 52.1 47 0.3 32.5
06:50 1021 30.15 850 25.1 12.2 54 46 0.9 33.5
06:55 1021 30.15 850 25.1 12 53.6 47 1.2 34.1
07:00 1021 30.15 850 25.1 11.9 53.3 48 1.1 34.1
07:05 1021 30.15 850 25.1 12 53.6 48 1.3 34.3
07:10 1021 30.15 850 25.1 12 53.5 49 1.5 34.7
07:15 1021 30.15 850 25.1 11.8 53.3 50 1.8 35.2
07:20 1021 30.15 850 25.1 11.3 52.3 50 1.4 34.5
07:25 1021 30.15 850 25.1 11 51.8 52 1.5 34.7
07:30 1021 30.15 850 25.1 11.4 52.5 49 1.2 34.2
07:35 1021 30.15 850 25.1 12 53.6 49 1.6 34.9
07:40 1021 30.15 850 25.1 12.4 54.3 49 2 35.6
07:45 1021 30.15 850 25.1 12.8 55 48 2.2 36
07:50 1021 30.15 850 25.1 13 55.4 49 2.6 36.6
07:55 1021 30.15 850 25.1 13 55.5 49 2.6 36.6
08:00 1021 30.15 850 25.1 13 55.3 50 2.7 36.9
08:05 1021 30.15 850 25.1 13 55.4 50 2.8 37
08:10 1021 30.15 850 25.1 13.3 56 49 3 37.4
08:15 1021 30.15 850 25.1 13.7 56.6 48 3 37.4
08:20 1021 30.15 850 25.1 14.1 57.4 47 3.1 37.5
08:25 1021 30.15 850 25.1 14.4 57.9 47 3.2 37.8
08:30 1021 30.15 850 25.1 14.7 58.5 46 3.4 38.1
08:35 1021 30.15 850 25.1 15 58.9 46 3.5 38.3
08:40 1021 30.15 850 25.1 15 59 45 3.3 37.9
08:45 1021 30.15 850 25.1 15 58.9 44 3 37.4
08:50 1021 30.15 850 25.1 15.3 59.5 44 3.3 37.9
08:55 1021 30.15 850 25.1 15.8 60.4 46 4.2 39.5
09:00 1021 30.15 850 25.1 16.3 61.4 43 3.7 38.6
09:05 1021 30.15 850 25.1 16.7 62 41 3.5 38.3
09:10 1021 30.15 850 25.1 17.4 63.2 38 2.9 37.2
09:15 1021 30.15 850 25.1 17.7 63.9 39 3.8 38.8
09:20 1021 30.15 850 25.1 18.3 64.9 39 4.1 39.3
09:25 1021 30.15 850 25.1 18.3 64.9 38 3.7 38.7
09:30 1021 30.15 850 25.1 17.9 64.3 39 4 39.2
09:35 1021 30.15 850 25.1 18.5 65.3 36 3.3 37.9
09:40 1021 30.15 850 25.1 19.1 66.4 35 3.4 38.2
09:45 1021 30.15 850 25.1 18.4 65.1 36 3.3 37.9
09:50 1021 30.15 850 25.1 18.7 65.6 35 3.1 37.7
09:55 1021 30.15 850 25.1 17.9 64.3 36 2.7 36.9
10:00 1021 30.15 850 25.1 18.3 64.9 35 2.6 36.7
10:05 1021 30.15 850 25.1 18.8 65.8 33 2.3 36.1
10:10 1021 30.15 850 25.1 19.2 66.6 32 2.1 35.8
10:15 1021 30.15 850 25.1 20 68.1 30 2.2 36
10:20 1021 30.15 850 25.1 20.6 69.1 31 2.9 37.2
10:25 1021 30.15 850 25.1 20.7 69.3 29 2.3 36.2
10:30 1021 30.15 850 25.1 20.5 68.8 30 2.3 36.2
10:35 1021 30.15 850 25.1 20.6 69.2 29 2 35.5
10:40 1021 30.15 850 25.1 21.6 70.9 28 2.5 36.6
10:45 1020 30.12 850 25.1 22.2 71.9 27 2.7 36.8
10:50 1020 30.12 850 25.1 22.3 72.1 27 2.5 36.5
10:55 1020 30.12 850 25.1 22.6 72.7 27 2.9 37.2
11:00 1020 30.12 850 25.1 22.1 71.8 29 3.6 38.5
11:05 1020 30.12 850 25.1 22.1 71.9 28 3 37.4
11:10 1020 30.12 849 25.07 22.3 72.2 29 3.4 38.2
11:15 1020 30.12 849 25.07 22.3 72.1 27 2.8 37.1
11:20 1020 30.12 849 25.07 22.6 72.6 27 3.1 37.5
11:25 1020 30.12 849 25.07 23.1 73.6 27 3.2 37.8
11:30 1020 30.12 849 25.07 22.8 73.1 26 2.7 36.9
11:35 1020 30.12 849 25.07 22.9 73.3 27 3.1 37.6
11:40 1020 30.12 849 25.07 23.3 74 27 3.4 38.2
11:45 1020 30.12 849 25.07 23.7 74.7 26 3.3 38
11:50 1020 30.12 849 25.07 24.1 75.3 25 2.9 37.1
11:55 1020 30.12 849 25.07 24 75.1 25 2.9 37.2
12:00 1020 30.12 849 25.07 24.1 75.3 26 3.7 38.7
12:05 1020 30.12 849 25.07 24 75.1 25 3.1 37.5
12:10 1020 30.12 849 25.07 23.7 74.6 26 3.1 37.7
12:15 1020 30.12 849 25.07 23.6 74.4 26 3 37.4
12:20 1020 30.12 849 25.07 24.2 75.5 24 2.5 36.4
12:25 1020 30.12 849 25.07 24.9 76.8 24 3.3 37.9
12:30 1020 30.12 849 25.07 25.1 77.2 22 2.4 36.3
12:35 1020 30.12 849 25.07 25.4 77.7 23 2.8 37
12:40 1020 30.12 849 25.07 25.6 78.1 23 3 37.4
12:45 1019 30.09 849 25.07 25.1 77.2 24 3.3 38
12:50 1019 30.09 849 25.07 25.4 77.7 22 2.4 36.2
12:55 1019 30.09 849 25.07 25.4 77.8 22 2.7 36.8
13:00 1019 30.09 849 25.07 25 76.9 22 2.2 35.9
13:05 1019 30.09 848 25.04 25.5 78 22 2.6 36.7
13:10 1019 30.09 848 25.04 25.7 78.2 20 1.5 34.7
13:15 1019 30.09 848 25.04 25.7 78.3 20 1.2 34.2
13:20 1019 30.09 848 25.04 26.5 79.7 17 -0.7 30.8
13:25 1019 30.09 848 25.04 27.8 82 16 -0.4 31.3
13:30 1019 30.09 848 25.04 27.6 81.7 16 0 32
13:35 1019 30.09 848 25.04 28.6 83.6 15 0.2 32.4
13:40 1019 30.09 848 25.04 28.8 83.9 15 0.3 32.5
13:45 1019 30.09 848 25.04 28.9 84.1 15 -0 31.9
13:50 1019 30.09 848 25.04 29.2 84.6 15 0 32
13:55 1019 30.09 848 25.04 28.7 83.7 15 -0.2 31.6
14:00 1019 30.09 848 25.04 28.9 84.1 14 -0.6 30.9
14:05 1019 30.09 848 25.04 29.3 84.7 15 0.3 32.5
14:10 1018 30.06 848 25.04 30.3 86.5 14 0.5 32.9
14:15 1018 30.06 848 25.04 30.6 87 13 -0.6 30.9
14:20 1018 30.06 848 25.04 30.2 86.3 15 0.6 33.1
14:25 1018 30.06 847 25.01 30 86.1 13 -1.4 29.4
14:30 1018 30.06 847 25.01 30.1 86.1 14 -0.4 31.3
14:35 1018 30.06 847 25.01 29.9 85.8 14 0 32
14:40 1018 30.06 847 25.01 29.8 85.7 14 -0.4 31.3
14:45 1018 30.06 847 25.01 30 85.9 14 -0.3 31.4
14:50 1018 30.06 847 25.01 29.3 84.7 13 -1.2 29.9
14:55 1018 30.06 847 25.01 28.9 83.9 15 -0.4 31.2
15:00 1018 30.06 847 25.01 29.1 84.4 14 -0.4 31.3
15:05 1018 30.06 847 25.01 29.6 85.4 14 -0.1 31.8
15:10 1018 30.06 847 25.01 29.8 85.7 14 0 32
15:15 1018 30.06 847 25.01 30 86.1 14 0.1 32.2
15:20 1018 30.06 847 25.01 30.4 86.7 14 0.7 33.3
15:25 1018 30.06 847 25.01 29.7 85.5 14 -0.6 31
15:30 1018 30.06 847 25.01 29.6 85.3 14 0.1 32.2
15:35 1017 30.03 847 25.01 29.5 85.2 15 0.5 32.9
15:40 1017 30.03 847 25.01 29.5 85.2 14 -0.4 31.3
15:45 1017 30.03 847 25.01 29.5 85.1 15 0.5 33
15:50 1017 30.03 846 24.98 29 84.3 15 -0.1 31.7
15:55 1017 30.03 846 24.98 28.7 83.6 15 0.2 32.3
16:00 1017 30.03 846 24.98 28.4 83.1 15 -0.4 31.3
16:05 1017 30.03 846 24.98 28.3 83 15 -0.7 30.7
16:10 1017 30.03 846 24.98 28.9 84 14 -1.3 29.7
16:15 1017 30.03 846 24.98 29.3 84.7 14 -0.9 30.4
16:20 1017 30.03 846 24.98 29.5 85 14 -0.7 30.7
16:25 1017 30.03 846 24.98 29.6 85.2 13 -1.3 29.7
16:30 1017 30.03 846 24.98 29.3 84.8 13 -1.3 29.6
16:35 1017 30.03 846 24.98 28.6 83.4 13 -2.1 28.3
16:40 1017 30.03 846 24.98 28.7 83.7 12 -2.7 27.2
16:45 1017 30.03 846 24.98 28.8 83.8 13 -2.3 27.9
16:50 1017 30.03 846 24.98 28.8 83.9 13 -1.8 28.7
16:55 1017 30.03 846 24.98 28.4 83 12 -3 26.6
17:00 1017 30.03 846 24.98 27.8 82.1 13 -2.7 27.2
17:05 1017 30.03 846 24.98 27.9 82.2 14 -1.8 28.7
17:10 1017 30.03 846 24.98 28.2 82.8 14 -1.3 29.7
17:15 1017 30.03 846 24.98 28.4 83.1 13 -2.1 28.2
17:20 1017 30.03 846 24.98 27.9 82.2 16 -0.4 31.3
17:25 1017 30.03 846 24.98 28 82.3 13 -2.3 27.8
17:30 1017 30.03 846 24.98 28.8 83.9 13 -1.8 28.7
17:35 1017 30.03 846 24.98 29.6 85.3 12 -2.2 28
17:40 1017 30.03 846 24.98 29.1 84.4 13 -2.2 28.1
17:45 1017 30.03 846 24.98 28.6 83.4 13 -1.7 28.9
17:50 1017 30.03 846 24.98 28.7 83.6 13 -1.7 29
17:55 1017 30.03 846 24.98 29 84.1 13 -2.1 28.1
18:00 1017 30.03 846 24.98 29.2 84.5 13 -1.9 28.5
18:05 1017 30.03 846 24.98 29.2 84.6 13 -2.1 28.1
18:10 1017 30.03 846 24.98 28.9 84 13 -2 28.4
18:15 1017 30.03 846 24.98 29.1 84.4 12 -2.5 27.5
18:20 1017 30.03 846 24.98 29.3 84.7 13 -1.9 28.6
18:25 1016 30 846 24.98 29.3 84.7 12 -2.9 26.8
18:30 1016 30 846 24.98 29.2 84.6 13 -1.9 28.5
18:35 1017 30.03 846 24.98 29.2 84.5 12 -2.6 27.3
18:40 1016 30 846 24.98 29.1 84.4 11 -3.7 25.3
18:45 1016 30 846 24.98 29.1 84.4 11 -3.8 25.2
18:50 1016 30 846 24.98 29.4 84.8 13 -2 28.4
18:55 1016 30 846 24.98 29.1 84.4 14 -1.1 30.1
19:00 1017 30.03 846 24.98 28.5 83.2 15 -0.6 31
19:05 1016 30 846 24.98 28.1 82.5 15 -0.6 31
19:10 1016 30 846 24.98 27.8 82.1 15 -1.1 30.1
19:15 1017 30.03 846 24.98 27.8 82 14 -2 28.5
19:20 1017 30.03 846 24.98 27.8 82 14 -1.6 29
19:25 1017 30.03 846 24.98 27.7 81.8 16 -0.5 31
19:30 1017 30.03 846 24.98 27.4 81.3 16 -0.8 30.6
19:35 1017 30.03 846 24.98 27.2 80.9 16 -0.7 30.7
19:40 1017 30.03 846 24.98 26.9 80.4 16 -1.1 30.1
19:45 1017 30.03 846 24.98 26.8 80.2 16 -1.1 30
19:50 1017 30.03 846 24.98 26.5 79.8 16 -0.8 30.5
19:55 1017 30.03 846 24.98 26.4 79.4 16 -1.3 29.7
20:00 1017 30.03 846 24.98 26.1 79 17 -0.2 31.7
20:05 1017 30.03 846 24.98 25.8 78.4 18 -0.1 31.7
20:10 1017 30.03 846 24.98 25.6 78.1 17 -0.7 30.7
20:15 1017 30.03 846 24.98 25.3 77.6 18 -0.7 30.7
20:20 1017 30.03 846 24.98 25.1 77.2 19 -0.1 31.8
20:25 1017 30.03 846 24.98 24.9 76.9 18 -0.8 30.6
20:30 1017 30.03 846 24.98 24.7 76.5 19 -0.1 31.8
20:35 1017 30.03 846 24.98 24.4 76 20 0.5 32.8
20:40 1017 30.03 846 24.98 24 75.2 24 2.4 36.3
20:45 1017 30.03 846 24.98 23.5 74.2 26 2.8 37.1
20:50 1017 30.03 846 24.98 23.1 73.5 24 1.4 34.6
20:55 1017 30.03 846 24.98 22.9 73.1 24 1.2 34.1
21:00 1017 30.03 846 24.98 22.7 72.9 23 0.6 33.1
21:05 1017 30.03 846 24.98 22.5 72.5 25 1.8 35.2
21:10 1017 30.03 846 24.98 22.3 72.2 25 1.4 34.4
21:15 1017 30.03 846 24.98 22.3 72.1 34 5.9 42.6
21:20 1017 30.03 846 24.98 22.5 72.5 21 -0.9 30.5
21:25 1017 30.03 846 24.98 23.1 73.7 26 3 37.5
21:30 1017 30.03 846 24.98 22.7 72.8 24 1.3 34.4
21:35 1017 30.03 846 24.98 22.1 71.8 25 1.4 34.5
21:40 1017 30.03 847 25.01 21.8 71.3 25 1 33.7
21:45 1017 30.03 847 25.01 21.8 71.2 27 2 35.6
21:50 1017 30.03 847 25.01 21.4 70.5 31 3.9 39.1
21:55 1017 30.03 847 25.01 20.7 69.3 32 3.8 38.9
22:00 1017 30.03 847 25.01 20.4 68.6 33 3.7 38.7
22:05 1017 30.03 847 25.01 20.1 68.3 28 1.2 34.2
22:10 1017 30.03 847 25.01 19.7 67.5 27 0.4 32.8
22:15 1017 30.03 847 25.01 19.9 67.8 29 1.3 34.4
22:20 1017 30.03 847 25.01 19.5 67.2 29 1 33.8
22:25 1017 30.03 847 25.01 19 66.2 30 1.3 34.4
22:30 1017 30.03 847 25.01 18.8 65.8 31 1.4 34.6
22:35 1018 30.06 847 25.01 18.8 65.8 31 1.2 34.2
22:40 1018 30.06 847 25.01 18.9 65.9 31 1.4 34.5
22:45 1018 30.06 847 25.01 18.7 65.7 29 0.5 32.8
22:50 1018 30.06 847 25.01 19.3 66.7 29 1 33.9
22:55 1017 30.03 847 25.01 19.4 66.9 30 1.3 34.4
23:00 1017 30.03 847 25.01 18.9 66 34 2.8 37.1
23:05 1017 30.03 846 24.98 18.1 64.5 32 1.3 34.4
23:10 1017 30.03 846 24.98 17.4 63.4 34 1.4 34.6
23:15 1017 30.03 846 24.98 17.5 63.5 32 0.8 33.5
23:20 1017 30.03 846 24.98 17.4 63.4 34 1.3 34.4
23:25 1017 30.03 846 24.98 17.1 62.9 33 0.8 33.5
23:30 1017 30.03 846 24.98 17.3 63.1 32 0.5 33
23:35 1017 30.03 846 24.98 17.5 63.5 31 0.2 32.3
23:40 1017 30.03 846 24.98 17.5 63.6 31 0.3 32.5
23:45 1017 30.03 846 24.98 17.5 63.4 37 2.6 36.6
23:50 1017 30.03 846 24.98 17.5 63.5 31 0.2 32.4
23:55 1017 30.03 846 24.98 17.1 62.8 32 0.5 32.8
24:00 1017 30.03 846 24.98 16.7 62.1 33 0.6 33.1